Time;durP1;ratioP1;P1;durP2;ratioP2;P2;SDS_P1;SDS_P2;PMS_P1;PMS_P2;Temp;Humidity;BMP_temperature;BMP_pressure;BME280_temperature;BME280_humidity;BME280_pressure;Samples;Min_cycle;Max_cycle;Signal;HPM_P1;HPM_P2
2021/06/05 00:00:54;;;;;;;3.05;2.85;;;23.90;44.60;;;27.56;30.20;101704.09;5154335;27;20065;-54
2021/06/05 00:03:21;;;;;;;2.75;2.55;;;23.90;44.50;;;27.57;30.25;101700.47;5154390;27;20510;-54
2021/06/05 00:05:50;;;;;;;2.80;2.60;;;23.80;44.50;;;27.56;30.17;101706.78;5154656;27;20042;-54
2021/06/05 00:08:19;;;;;;;2.72;2.53;;;23.90;44.60;;;27.56;30.00;101714.84;5154364;27;20042;-56
2021/06/05 00:10:55;;;;;;;3.15;2.85;;;23.80;44.50;;;27.50;30.24;101703.59;5154258;27;20085;-54
2021/06/05 00:13:26;;;;;;;2.65;2.45;;;23.80;44.50;;;27.52;30.13;101703.50;5154140;27;20057;-54
2021/06/05 00:15:53;;;;;;;2.97;2.67;;;23.80;44.50;;;27.51;30.27;101688.34;5135614;27;20055;-53
2021/06/05 00:18:20;;;;;;;2.90;2.70;;;23.80;44.60;;;27.52;30.26;101698.97;5154229;27;20049;-55
2021/06/05 00:20:46;;;;;;;3.17;2.97;;;23.80;44.50;;;27.52;30.22;101695.44;5154399;27;20050;-53
2021/06/05 00:23:18;;;;;;;2.75;2.55;;;23.80;44.60;;;27.48;30.26;101686.75;5154026;27;20055;-51
2021/06/05 00:25:46;;;;;;;2.67;2.47;;;23.80;44.60;;;27.47;30.15;101687.72;5154414;27;20094;-53
2021/06/05 00:28:13;;;;;;;2.95;2.65;;;23.80;44.60;;;27.47;30.33;101676.97;5154165;27;20524;-52
2021/06/05 00:30:39;;;;;;;2.80;2.60;;;23.80;44.70;;;27.49;30.22;101691.13;5153818;27;20050;-56
2021/06/05 00:33:06;;;;;;;2.67;2.47;;;23.80;44.60;;;27.46;30.41;101685.16;5138122;27;20196;-51
2021/06/05 00:35:33;;;;;;;2.63;2.42;;;23.80;44.60;;;27.45;30.06;101692.38;5157990;27;20047;-56
2021/06/05 00:37:59;;;;;;;2.85;2.65;;;23.70;44.60;;;27.47;30.32;101692.25;5157451;27;20058;-55
2021/06/05 00:40:31;;;;;;;2.60;2.40;;;23.70;44.60;;;27.44;30.12;101696.00;5157479;27;20042;-53
2021/06/05 00:42:57;;;;;;;2.40;2.20;;;23.70;44.70;;;27.41;30.38;101690.88;5157539;27;20480;-52
2021/06/05 00:45:28;;;;;;;2.35;2.25;;;23.70;44.70;;;27.44;30.32;101703.22;5137819;27;20092;-54
2021/06/05 00:47:54;;;;;;;3.13;2.83;;;23.70;44.70;;;27.45;30.32;101695.03;5139038;27;20076;-54
2021/06/05 00:50:21;;;;;;;2.95;2.75;;;23.70;44.70;;;27.39;30.19;101694.66;5136795;27;20047;-52
2021/06/05 00:52:48;;;;;;;2.70;2.50;;;23.70;44.70;;;27.43;30.09;101702.38;5157447;27;20096;-53
2021/06/05 00:55:18;;;;;;;2.80;2.60;;;23.70;44.70;;;27.40;30.33;101699.03;5137938;27;20480;-55
2021/06/05 00:57:44;;;;;;;2.90;2.70;;;23.70;44.70;;;27.41;30.44;101704.28;5121449;27;20129;-54
2021/06/05 01:00:25;;;;;;;2.60;2.40;;;23.70;44.70;;;27.37;30.29;101691.25;5137754;27;20083;-53
2021/06/05 01:02:51;;;;;;;2.85;2.65;;;23.70;44.70;;;27.39;30.25;101695.50;5138940;27;20050;-55
2021/06/05 01:05:19;;;;;;;2.70;2.50;;;23.70;44.70;;;27.39;30.27;101702.72;5156943;27;20563;-53
2021/06/05 01:07:47;;;;;;;3.22;2.50;;;23.70;44.80;;;27.39;30.45;101702.72;5157027;27;20054;-55
2021/06/05 01:10:23;;;;;;;2.88;2.67;;;23.70;44.80;;;27.35;30.31;101711.00;5136639;27;20043;-54
2021/06/05 01:13:17;;;;;;;3.22;2.85;;;23.70;44.80;;;27.35;30.50;101708.31;5121627;27;20050;-55
2021/06/05 01:15:56;;;;;;;2.70;2.50;;;23.60;44.70;;;27.33;30.47;101712.97;5136759;27;20043;-54
2021/06/05 01:18:34;;;;;;;2.75;2.55;;;23.60;44.70;;;27.31;30.39;101706.81;5137837;27;20093;-56
2021/06/05 01:21:17;;;;;;;2.60;2.40;;;23.60;44.70;;;27.30;30.35;101709.66;5120288;27;20120;-53
2021/06/05 01:24:19;;;;;;;2.60;2.40;;;23.60;44.80;;;27.30;30.27;101704.28;5138611;27;20062;-52
2021/06/05 01:27:11;;;;;;;2.83;2.63;;;23.60;44.80;;;27.30;30.44;101706.97;5087552;27;20046;-53
2021/06/05 01:29:43;;;;;;;2.40;2.20;;;23.60;44.80;;;27.32;30.29;101710.38;5138354;27;20055;-49
2021/06/05 01:32:13;;;;;;;2.58;2.38;;;23.60;44.80;;;27.29;30.54;101710.63;5121682;27;20491;-55
2021/06/05 01:34:44;;;;;;;2.07;1.97;;;23.60;44.80;;;27.33;30.29;101707.59;5138134;27;20063;-52
2021/06/05 01:37:16;;;;;;;2.65;2.45;;;23.60;44.90;;;27.32;30.43;101713.91;5138234;27;20051;-55
2021/06/05 01:39:51;;;;;;;2.60;2.40;;;23.50;44.90;;;27.26;30.46;101700.91;5122284;27;20055;-52
2021/06/05 01:42:30;;;;;;;2.58;2.38;;;23.60;44.90;;;27.26;30.44;101708.13;5138109;27;20083;-55
2021/06/05 01:44:59;;;;;;;3.57;2.40;;;23.50;44.90;;;27.26;30.39;101708.13;5120532;27;20088;-54
2021/06/05 01:47:26;;;;;;;2.30;2.20;;;23.60;44.90;;;27.23;30.26;101698.50;5137690;27;20042;-53
2021/06/05 01:49:53;;;;;;;2.75;2.55;;;23.50;44.90;;;27.24;30.32;101710.91;5138084;27;20038;-54
2021/06/05 01:52:27;;;;;;;2.65;2.45;;;23.50;44.90;;;27.25;30.53;101719.81;5137689;27;20053;-55
2021/06/05 01:55:10;;;;;;;2.72;2.53;;;23.50;44.90;;;27.21;30.49;101713.00;5121431;27;20043;-52
2021/06/05 01:57:44;;;;;;;2.67;2.47;;;23.50;45.00;;;27.22;30.57;101718.25;5121021;27;20050;-52
2021/06/05 02:00:35;;;;;;;2.58;2.38;;;23.50;45.00;;;27.20;30.42;101708.56;5140971;27;20509;-49
2021/06/05 02:03:05;;;;;;;2.53;2.33;;;23.50;45.00;;;27.20;30.46;101709.47;5156297;27;20042;-54
2021/06/05 02:05:36;;;;;;;2.85;2.65;;;23.50;45.00;;;27.21;30.48;101710.31;5156249;27;20107;-54
2021/06/05 02:08:11;;;;;;;2.22;2.13;;;23.50;45.00;;;27.19;30.39;101710.41;5137447;27;20054;-55
2021/06/05 02:10:38;;;;;;;2.40;2.20;;;23.50;45.00;;;27.19;30.51;101715.78;5136571;27;20399;-52
2021/06/05 02:13:16;;;;;;;2.60;2.40;;;23.50;45.00;;;27.19;30.54;101723.84;5137446;27;20058;-53
2021/06/05 02:15:57;;;;;;;2.50;2.30;;;23.40;44.90;;;27.16;30.50;101721.38;5122034;27;20039;-51
2021/06/05 02:18:30;;;;;;;2.58;2.38;;;23.40;45.00;;;27.18;30.51;101730.16;5156203;27;20546;-54
2021/06/05 02:21:17;;;;;;;2.70;2.50;;;23.40;45.50;;;27.12;30.62;101712.69;5121327;27;20499;-52
2021/06/05 02:24:07;;;;;;;2.80;2.60;;;23.40;45.00;;;27.11;30.50;101713.66;5120966;27;20046;-54
2021/06/05 02:26:38;;;;;;;2.78;2.58;;;23.40;45.10;;;27.14;30.55;101715.28;5137387;27;20572;-54
2021/06/05 02:29:09;;;;;;;2.13;2.03;;;23.40;45.10;;;27.12;30.58;101714.53;5118643;27;20054;-53
2021/06/05 02:31:38;;;;;;;2.53;2.33;;;23.40;45.10;;;27.13;30.50;101713.56;5137280;27;20047;-51
2021/06/05 02:34:09;;;;;;;2.50;2.30;;;23.40;45.10;;;27.11;30.58;101710.13;5137463;27;20492;-53
2021/06/05 02:36:41;;;;;;;2.50;2.30;;;23.40;45.10;;;27.10;30.65;101706.59;5135526;27;20043;-55
2021/06/05 02:39:08;;;;;;;2.45;2.10;;;23.40;45.10;;;27.11;30.64;101708.28;5137394;27;20497;-48
2021/06/05 02:41:35;;;;;;;2.28;2.10;;;23.40;45.10;;;27.07;30.52;101698.78;5120080;27;20050;-53
2021/06/05 02:44:03;;;;;;;2.70;2.50;;;23.40;45.20;;;27.06;30.49;101697.06;5155545;27;20096;-49
2021/06/05 02:46:34;;;;;;;2.60;2.40;;;23.40;45.10;;;27.07;30.58;101697.94;5155803;27;20068;-49
2021/06/05 02:49:28;;;;;;;2.40;2.20;;;23.30;45.10;;;27.09;30.53;101706.72;5155551;27;20039;-52
2021/06/05 02:52:05;;;;;;;2.30;2.10;;;23.40;45.20;;;27.07;30.53;101700.63;5136797;27;20455;-47
2021/06/05 02:54:34;;;;;;;2.50;2.30;;;23.30;45.10;;;27.09;30.64;101704.03;5155364;27;20050;-50
2021/06/05 02:57:03;;;;;;;2.40;2.30;;;23.30;45.20;;;27.05;30.72;101697.16;5137327;27;20046;-52
2021/06/05 02:59:29;;;;;;;2.38;2.13;;;23.30;45.20;;;27.06;30.65;101685.47;5136798;27;20043;-52
2021/06/05 03:01:56;;;;;;;2.22;2.10;;;23.30;45.20;;;27.04;30.59;101687.41;5155949;27;20471;-51
2021/06/05 03:04:25;;;;;;;2.40;2.20;;;23.30;45.20;;;27.03;30.73;101691.06;5155517;27;20051;-49
2021/06/05 03:06:52;;;;;;;2.42;2.20;;;23.30;45.20;;;27.04;30.60;101690.94;5153925;27;20129;-52
2021/06/05 03:09:20;;;;;;;2.70;2.50;;;23.30;45.20;;;27.02;30.73;101686.69;5136237;27;20046;-51
2021/06/05 03:11:50;;;;;;;2.42;2.25;;;23.30;45.20;;;27.02;30.70;101690.22;5119571;27;20065;-48
2021/06/05 03:14:17;;;;;;;2.47;2.28;;;23.30;45.30;;;27.00;30.61;101684.13;5136514;27;20494;-48
2021/06/05 03:16:45;;;;;;;2.40;2.20;;;23.30;45.30;;;27.02;30.67;101687.53;5136361;27;20043;-49
2021/06/05 03:19:13;;;;;;;2.63;2.42;;;23.30;45.30;;;27.01;30.70;101682.28;5155101;27;20050;-50
2021/06/05 03:21:42;;;;;;;2.40;2.20;;;23.30;45.30;;;27.02;30.52;101682.16;5136694;27;20051;-47
2021/06/05 03:24:20;;;;;;;2.30;2.10;;;23.30;45.20;;;27.04;30.50;101684.72;5136344;27;20046;-48
2021/06/05 03:26:48;;;;;;;2.42;2.22;;;23.30;45.20;;;27.05;30.52;101686.41;5136839;27;20397;-50
2021/06/05 03:29:14;;;;;;;2.58;2.38;;;23.30;45.20;;;27.04;30.40;101682.91;5136090;27;20137;-51
2021/06/05 03:31:46;;;;;;;2.15;2.05;;;23.30;45.20;;;27.07;30.67;101679.13;5136677;27;20038;-48
2021/06/05 03:34:12;;;;;;;2.00;1.90;;;23.30;45.20;;;27.02;30.63;101676.78;5136112;27;20043;-49
2021/06/05 03:36:38;;;;;;;2.20;2.10;;;23.30;45.20;;;27.04;30.50;101680.22;5135924;27;20496;-51
2021/06/05 03:39:07;;;;;;;2.60;2.40;;;23.30;45.30;;;27.04;30.57;101677.53;5136356;27;20070;-51
2021/06/05 03:41:40;;;;;;;2.60;2.40;;;23.30;45.30;;;27.01;30.48;101677.75;5136055;27;20047;-48
2021/06/05 03:44:06;;;;;;;2.42;2.25;;;23.30;45.30;;;27.02;30.52;101681.31;5154633;27;20284;-51
2021/06/05 03:46:34;;;;;;;2.47;2.28;;;23.30;45.30;;;27.02;30.77;101684.84;5135790;27;20046;-52
2021/06/05 03:49:03;;;;;;;2.50;2.30;;;23.20;45.20;;;27.01;30.59;101677.75;5154752;27;20043;-53
2021/06/05 03:51:32;;;;;;;2.83;2.33;;;23.20;45.20;;;26.97;30.62;101673.59;5136385;27;20050;-48
2021/06/05 03:53:59;;;;;;;2.58;2.38;;;23.20;45.30;;;27.00;30.63;101678.75;5134261;27;20503;-50
2021/06/05 03:56:28;;;;;;;2.20;2.10;;;23.20;45.30;;;27.02;30.66;101690.22;5134102;27;20081;-50
2021/06/05 03:58:54;;;;;;;2.20;2.10;;;23.20;45.90;;;26.98;30.69;101694.97;5136001;27;20047;-49
2021/06/05 04:01:25;;;;;;;2.35;2.20;;;23.20;45.30;;;27.02;30.62;101697.41;5154375;27;20047;-54
2021/06/05 04:03:53;;;;;;;2.50;2.30;;;23.30;45.30;;;26.99;30.62;101691.28;5154594;27;20053;-53
2021/06/05 04:06:20;;;;;;;2.08;1.98;;;23.30;45.30;;;27.02;30.72;101690.22;5153896;27;20484;-54
2021/06/05 04:08:47;;;;;;;2.53;2.33;;;23.30;45.20;;;27.07;30.55;101697.94;5154245;27;20053;-52
2021/06/05 04:11:14;;;;;;;2.35;2.20;;;23.30;45.20;;;27.12;30.62;101703.81;5154218;27;20039;-49
2021/06/05 04:13:39;;;;;;;2.42;2.22;;;23.30;45.10;;;27.14;30.51;101700.00;5135457;27;20054;-52
2021/06/05 04:16:07;;;;;;;2.33;2.20;;;23.40;45.10;;;27.18;30.49;101697.94;5135545;27;20055;-54
2021/06/05 04:18:37;;;;;;;2.10;2.00;;;23.40;45.00;;;27.24;30.26;101697.50;5154488;27;20065;-52
2021/06/05 04:21:06;;;;;;;2.10;2.00;;;23.50;45.00;;;27.25;30.44;101687.59;5154112;27;20141;-50
2021/06/05 04:23:32;;;;;;;2.50;2.30;;;23.50;44.80;;;27.33;30.17;101688.78;5154090;27;20073;-51
2021/06/05 04:25:58;;;;;;;2.40;2.20;;;23.60;44.70;;;27.40;30.18;101697.22;5154060;27;20126;-54
2021/06/05 04:28:27;;;;;;;2.28;2.17;;;23.70;44.60;;;27.44;30.07;101698.69;5153928;27;20068;-48
2021/06/05 04:30:54;;;;;;;2.72;2.53;;;23.70;44.50;;;27.48;30.14;101702.00;5153891;27;20049;-49
2021/06/05 04:33:23;;;;;;;2.20;2.10;;;23.80;44.50;;;27.52;30.04;101695.44;5153933;27;20043;-49
2021/06/05 04:35:50;;;;;;;2.13;2.03;;;23.80;44.30;;;27.62;29.97;101699.13;5153806;27;20440;-54
2021/06/05 04:38:16;;;;;;;2.38;2.17;;;23.90;44.20;;;27.68;29.78;101704.03;5153717;27;20130;-49
2021/06/05 04:40:42;;;;;;;2.00;1.90;;;23.90;44.00;;;27.72;29.63;101696.56;5154166;27;20054;-47
2021/06/05 04:43:10;;;;;;;2.17;1.98;;;24.00;44.00;;;27.78;29.87;101695.22;5134068;27;20063;-52
2021/06/05 04:45:38;;;;;;;2.40;2.20;;;24.00;43.90;;;27.86;29.84;101695.47;5154054;27;20051;-54
2021/06/05 04:48:05;;;;;;;2.47;2.28;;;24.10;43.80;;;27.90;29.52;101691.59;5153971;27;20043;-53
2021/06/05 04:50:36;;;;;;;2.08;1.98;;;24.20;43.70;;;27.99;29.58;101690.88;5154034;27;20099;-48
2021/06/05 04:53:02;;;;;;;2.15;2.05;;;24.20;43.60;;;28.09;29.38;101686.47;5153866;27;20047;-53
2021/06/05 04:55:28;;;;;;;2.33;2.20;;;24.30;43.50;;;28.16;29.38;101686.00;5153851;27;20046;-52
2021/06/05 04:57:55;;;;;;;2.50;2.30;;;24.30;43.40;;;28.20;29.00;101684.75;5153740;27;20046;-51
2021/06/05 05:00:28;;;;;;;2.10;2.00;;;24.40;43.40;;;28.24;29.17;101687.09;5153878;27;20061;-49
2021/06/05 05:02:54;;;;;;;2.33;2.20;;;24.40;43.30;;;28.35;28.85;101688.94;5153790;27;20050;-51
2021/06/05 05:05:21;;;;;;;2.20;2.10;;;24.50;43.20;;;28.39;29.13;101689.53;5153406;27;20046;-50
2021/06/05 05:07:49;;;;;;;2.20;2.10;;;24.50;43.10;;;28.43;28.88;101689.16;5153503;27;20054;-53
2021/06/05 05:10:18;;;;;;;2.03;1.92;;;24.50;43.00;;;28.44;28.81;101685.47;5153571;27;20121;-52
2021/06/05 05:12:44;;;;;;;2.65;2.45;;;24.60;43.10;;;28.51;28.88;101690.38;5153388;27;20054;-51
2021/06/05 05:15:11;;;;;;;1.73;1.63;;;24.60;43.00;;;28.51;28.88;101690.38;5153630;27;20042;-51
2021/06/05 05:17:37;;;;;;;2.40;2.20;;;24.60;43.10;;;28.51;28.61;101687.69;5153306;27;20498;-52
2021/06/05 05:20:07;;;;;;;1.90;1.80;;;24.60;43.00;;;28.51;28.76;101685.84;5155913;27;20050;-49
2021/06/05 05:22:33;;;;;;;2.38;2.17;;;24.50;43.00;;;28.51;28.85;101687.69;5156770;27;20051;-54
2021/06/05 05:24:59;;;;;;;2.20;2.00;;;24.60;43.00;;;28.53;28.84;101683.03;5157223;27;20122;-50
2021/06/05 05:27:25;;;;;;;2.30;2.10;;;24.60;43.00;;;28.58;28.56;101691.59;5156814;27;20054;-50
2021/06/05 05:29:50;;;;;;;2.35;2.15;;;24.60;43.00;;;28.61;28.77;101692.19;5156640;27;20050;-48
2021/06/05 05:32:16;;;;;;;2.00;1.90;;;24.60;42.90;;;28.63;28.66;101684.88;5156748;27;20053;-53
2021/06/05 05:34:42;;;;;;;1.75;1.65;;;24.70;42.90;;;28.68;28.42;101697.94;5156687;27;20060;-49
2021/06/05 05:37:08;;;;;;;2.20;2.00;;;24.70;42.90;;;28.70;28.66;101689.75;5137894;27;20038;-53
2021/06/05 05:39:34;;;;;;;2.00;1.90;;;24.70;42.80;;;28.75;28.71;101692.91;5156840;27;20046;-53
2021/06/05 05:41:59;;;;;;;1.90;1.80;;;24.80;42.80;;;28.76;28.22;101690.09;5136361;27;20100;-49
2021/06/05 05:44:25;;;;;;;2.42;2.25;;;24.80;42.70;;;28.76;28.44;101679.31;5156531;27;20053;-52
2021/06/05 05:46:51;;;;;;;2.08;1.98;;;24.90;42.70;;;28.85;28.25;101695.69;5156490;27;20043;-52
2021/06/05 05:49:17;;;;;;;2.20;2.10;;;24.90;42.60;;;28.88;28.36;101693.59;5156296;27;20042;-49
2021/06/05 05:51:44;;;;;;;2.08;1.98;;;25.00;42.50;;;28.93;28.20;101699.44;5138251;27;20074;-50
2021/06/05 05:54:10;;;;;;;1.92;1.83;;;25.00;42.40;;;28.97;28.36;101698.22;5156767;27;20054;-50
2021/06/05 05:56:36;;;;;;;2.15;2.05;;;25.00;42.30;;;29.01;28.03;101693.44;5156950;27;20047;-48
2021/06/05 05:59:04;;;;;;;2.00;1.90;;;25.10;42.30;;;29.05;28.17;101699.41;5156435;27;20047;-48
2021/06/05 06:01:30;;;;;;;2.72;2.08;;;25.10;42.20;;;29.08;28.12;101702.69;5156232;27;20042;-50
2021/06/05 06:03:58;;;;;;;2.10;2.00;;;25.20;42.20;;;29.11;27.94;101705.16;5156129;27;20039;-51
2021/06/05 06:06:27;;;;;;;2.03;1.80;;;25.20;42.10;;;29.15;28.22;101698.53;5156524;27;20054;-50
2021/06/05 06:08:53;;;;;;;1.98;1.83;;;25.20;42.00;;;29.19;28.05;101700.00;5156124;27;20053;-53
2021/06/05 06:11:20;;;;;;;2.00;1.90;;;25.30;42.00;;;29.23;27.70;101700.59;5156584;27;20057;-51
2021/06/05 06:13:46;;;;;;;1.80;1.70;;;25.30;41.90;;;29.27;27.91;101712.84;5156097;27;20126;-52
2021/06/05 06:16:14;;;;;;;1.85;1.75;;;25.40;41.90;;;29.33;27.66;101706.06;5156080;27;20062;-54
2021/06/05 06:18:41;;;;;;;2.10;2.00;;;25.40;41.80;;;29.37;27.71;101711.06;5156050;27;20495;-52
2021/06/05 06:21:10;;;;;;;2.08;1.98;;;25.40;41.70;;;29.42;27.46;101709.81;5155983;27;20529;-51
2021/06/05 06:23:40;;;;;;;1.98;1.88;;;25.50;41.70;;;29.46;27.66;101698.66;5155937;27;20047;-52
2021/06/05 06:26:22;;;;;;;2.20;2.00;;;25.50;41.60;;;29.47;27.82;101689.59;5155919;27;20042;-49
2021/06/05 06:28:49;;;;;;;1.98;1.77;;;25.60;41.60;;;29.55;27.71;101687.09;5155894;27;20377;-51
2021/06/05 06:31:18;;;;;;;2.15;1.95;;;25.60;41.50;;;29.59;27.45;101686.78;5155392;27;20039;-51
2021/06/05 06:33:44;;;;;;;1.90;1.80;;;25.70;41.40;;;29.62;27.26;101687.41;5156368;27;20043;-55
2021/06/05 06:36:12;;;;;;;2.05;1.95;;;25.70;41.40;;;29.65;27.31;101681.72;5155937;27;20043;-50
2021/06/05 06:38:45;;;;;;;1.92;1.83;;;25.80;41.30;;;29.71;27.50;101677.66;5137083;27;20539;-51
2021/06/05 06:41:24;;;;;;;2.10;2.00;;;25.80;41.40;;;29.77;27.42;101685.25;5156087;27;20051;-55
2021/06/05 06:43:50;;;;;;;1.73;1.63;;;25.90;41.00;;;29.83;26.98;101682.00;5155733;27;20096;-52
2021/06/05 06:46:23;;;;;;;2.00;1.90;;;26.00;40.90;;;29.86;27.17;101680.91;5155534;27;20137;-47
2021/06/05 06:48:51;;;;;;;2.00;1.85;;;26.00;40.90;;;29.90;27.16;101691.28;5155620;27;20049;-50
2021/06/05 06:51:17;;;;;;;2.05;1.95;;;26.10;40.80;;;29.91;27.11;101673.25;5136659;27;20085;-48
2021/06/05 06:53:43;;;;;;;2.00;1.90;;;26.10;40.90;;;29.97;26.98;101679.94;5155789;27;20074;-49
2021/06/05 06:56:09;;;;;;;2.10;2.00;;;26.20;40.70;;;30.00;26.94;101674.28;5156001;27;20046;-52
2021/06/05 06:58:36;;;;;;;1.73;1.63;;;26.20;40.50;;;30.02;27.16;101683.97;5155460;27;20122;-51
2021/06/05 07:01:04;;;;;;;2.05;1.95;;;26.30;40.50;;;30.08;26.66;101686.09;5155194;27;20381;-53
2021/06/05 07:03:29;;;;;;;2.05;1.83;;;26.30;40.50;;;30.13;26.83;101687.56;5155588;27;20047;-53
2021/06/05 07:05:55;;;;;;;1.92;1.83;;;26.30;40.30;;;30.17;26.70;101681.75;5155843;27;20107;-52
2021/06/05 07:08:33;;;;;;;2.00;1.90;;;26.40;40.30;;;30.16;26.79;101679.19;5155287;27;20053;-52
2021/06/05 07:11:05;;;;;;;1.90;1.80;;;26.40;40.20;;;30.22;26.73;101684.91;5155022;27;20047;-51
2021/06/05 07:13:31;;;;;;;2.20;2.10;;;26.40;40.20;;;30.26;26.69;101680.91;5155356;27;20050;-53
2021/06/05 07:15:58;;;;;;;2.30;2.13;;;26.50;40.20;;;30.29;26.56;101682.50;5155705;27;20057;-50
2021/06/05 07:18:27;;;;;;;3.15;1.95;;;26.50;40.10;;;30.30;26.59;101681.50;5155426;27;20388;-53
2021/06/05 07:20:53;;;;;;;2.10;2.00;;;26.50;40.10;;;30.33;26.54;101678.53;5155458;27;20057;-50
2021/06/05 07:23:24;;;;;;;2.00;1.90;;;26.50;40.10;;;30.33;26.69;101674.97;5155309;27;20039;-52
2021/06/05 07:25:52;;;;;;;1.90;1.80;;;26.60;40.20;;;30.39;26.60;101675.31;5155372;27;20098;-53
2021/06/05 07:28:34;;;;;;;1.98;1.88;;;26.60;40.00;;;30.39;26.58;101677.16;5135454;27;20555;-53
2021/06/05 07:31:03;;;;;;;2.40;2.20;;;26.60;40.00;;;30.42;26.32;101680.44;5154798;27;20074;-53
2021/06/05 07:33:29;;;;;;;2.03;1.92;;;26.60;39.90;;;30.43;26.39;101676.72;5154846;27;20076;-50
2021/06/05 07:35:56;;;;;;;2.03;1.92;;;26.60;39.80;;;30.47;26.37;101678.19;5155137;27;20038;-54
2021/06/05 07:38:26;;;;;;;2.05;1.92;;;26.70;39.90;;;30.49;26.31;101680.75;5154713;27;20034;-53
2021/06/05 07:40:54;;;;;;;2.10;2.00;;;26.70;39.90;;;30.48;26.29;101670.94;5154393;27;20050;-53
2021/06/05 07:43:23;;;;;;;1.95;1.80;;;26.70;39.80;;;30.53;26.24;101684.00;5154183;27;20939;-55
2021/06/05 07:45:49;;;;;;;2.03;1.90;;;26.70;39.90;;;30.52;26.18;101669.66;5135959;27;20360;-53
2021/06/05 07:48:16;;;;;;;2.10;1.88;;;26.70;39.80;;;30.54;26.15;101669.50;5154405;27;20043;-51
2021/06/05 07:50:42;;;;;;;2.10;2.00;;;26.70;39.70;;;30.54;26.23;101673.09;5154626;27;20133;-54
2021/06/05 07:53:08;;;;;;;1.90;1.80;;;26.80;39.80;;;30.56;26.10;101667.53;5154435;27;20042;-54
2021/06/05 07:55:34;;;;;;;2.00;1.90;;;26.70;39.70;;;30.57;26.26;101666.53;5154351;27;20164;-54
2021/06/05 07:58:00;;;;;;;2.38;2.17;;;26.80;39.70;;;30.55;26.04;101666.66;5154785;27;20053;-54
2021/06/05 08:00:31;;;;;;;2.50;2.30;;;26.80;39.70;;;30.60;26.12;101672.50;5154292;27;20051;-53
2021/06/05 08:02:57;;;;;;;2.00;1.90;;;26.80;39.70;;;30.61;26.19;101668.81;5154496;27;20134;-53
2021/06/05 08:05:24;;;;;;;2.22;2.03;;;26.80;39.70;;;30.61;26.14;101678.78;5154207;27;20050;-53
2021/06/05 08:07:50;;;;;;;1.92;1.83;;;26.80;39.60;;;30.64;26.09;101676.66;5118596;27;20055;-51
2021/06/05 08:10:21;;;;;;;1.73;1.63;;;26.90;39.80;;;30.64;26.02;101679.34;5133792;27;20484;-52
2021/06/05 08:12:47;;;;;;;2.05;1.95;;;26.90;39.70;;;30.65;26.14;101678.34;5154291;27;20141;-50
2021/06/05 08:15:20;;;;;;;2.00;1.90;;;26.90;39.60;;;30.67;26.11;101680.91;5154498;27;20046;-52
2021/06/05 08:17:45;;;;;;;2.00;1.90;;;26.90;39.70;;;30.67;25.98;101672.78;5154806;27;20131;-53
2021/06/05 08:20:15;;;;;;;1.90;1.80;;;26.90;39.60;;;30.68;26.16;101677.22;5154112;27;20058;-55
2021/06/05 08:22:41;;;;;;;1.90;1.80;;;26.90;39.60;;;30.68;26.04;101674.50;5154755;27;20715;-53
2021/06/05 08:25:08;;;;;;;2.40;2.20;;;26.90;39.60;;;30.67;25.97;101673.66;5154118;27;20447;-52
2021/06/05 08:27:37;;;;;;;2.08;1.88;;;26.90;39.60;;;30.69;26.08;101676.22;5154059;27;20084;-51
2021/06/05 08:30:08;;;;;;;2.10;2.00;;;26.90;39.80;;;30.68;26.08;101674.50;5135392;27;20513;-55
2021/06/05 08:32:33;;;;;;;1.92;1.73;;;26.90;39.80;;;30.67;25.92;101670.09;5135562;27;20090;-50
2021/06/05 08:34:59;;;;;;;2.00;1.90;;;26.90;39.50;;;30.69;26.01;101669.97;5154581;27;20039;-52
2021/06/05 08:37:25;;;;;;;1.92;1.83;;;26.90;39.70;;;30.67;26.12;101670.97;5154520;27;20046;-52
2021/06/05 08:39:52;;;;;;;1.98;1.88;;;26.90;39.50;;;30.61;26.10;101665.28;5153968;27;20499;-52
2021/06/05 08:42:36;;;;;;;2.00;1.90;;;26.90;39.50;;;30.64;26.21;101665.84;5135556;27;20038;-52
2021/06/05 08:45:05;;;;;;;2.10;2.00;;;26.90;39.50;;;30.63;26.06;101668.69;5135974;27;20042;-49
2021/06/05 08:47:35;;;;;;;1.80;1.70;;;26.90;39.60;;;30.62;26.14;101667.84;5153674;27;20047;-52
2021/06/05 08:50:10;;;;;;;1.63;1.52;;;26.80;39.50;;;30.59;26.16;101669.94;5135293;27;20050;-52
2021/06/05 08:53:07;;;;;;;2.25;2.10;;;26.90;39.60;;;30.60;26.21;101675.19;5154490;27;20125;-49
2021/06/05 08:55:51;;;;;;;1.90;1.80;;;26.90;39.60;;;30.55;26.15;101666.66;5097521;27;20060;-50
2021/06/05 08:58:36;;;;;;;1.83;1.63;;;26.80;39.50;;;30.53;26.20;101671.38;5157524;27;20070;-52
2021/06/05 09:01:14;;;;;;;1.88;1.77;;;26.80;39.60;;;30.52;26.20;101666.94;5138773;27;20103;-53
2021/06/05 09:03:42;;;;;;;1.90;1.80;;;26.80;39.60;;;30.48;26.03;101669.06;5157096;27;20487;-53
2021/06/05 09:06:17;;;;;;;2.08;1.98;;;26.80;39.60;;;30.45;26.22;101665.81;5157406;27;20178;-53
2021/06/05 09:08:44;;;;;;;2.03;1.92;;;26.80;39.60;;;30.41;26.31;101662.53;5157417;27;20054;-51
2021/06/05 09:11:13;;;;;;;2.10;2.00;;;26.70;39.60;;;30.41;26.37;101672.47;5157540;27;20505;-51
2021/06/05 09:13:40;;;;;;;2.20;2.00;;;26.70;39.70;;;30.35;26.26;101668.44;5138578;27;20091;-53
2021/06/05 09:16:17;;;;;;;1.70;1.60;;;26.70;39.70;;;30.34;26.47;101663.19;5156959;27;20051;-54
2021/06/05 09:19:06;;;;;;;1.73;1.63;;;26.60;39.70;;;30.32;26.48;101671.41;5157332;27;20046;-54
2021/06/05 09:21:39;;;;;;;2.00;1.90;;;26.70;39.80;;;30.32;26.32;101673.25;5156872;27;20134;-50
2021/06/05 09:24:20;;;;;;;2.10;2.00;;;26.70;39.80;;;30.29;26.62;101674.41;5157295;27;20050;-50
2021/06/05 09:27:07;;;;;;;2.05;1.88;;;26.70;39.80;;;30.29;26.33;101660.91;5138780;27;20046;-54
2021/06/05 09:29:57;;;;;;;1.90;1.80;;;26.70;39.80;;;30.25;26.42;101637.88;5156608;27;20157;-51
2021/06/05 09:32:31;;;;;;;1.95;1.85;;;26.70;39.80;;;30.27;26.58;101657.47;5138212;27;20043;-53
2021/06/05 09:35:34;;;;;;;2.03;1.92;;;26.70;39.80;;;30.26;26.42;101653.09;5157164;27;20099;-52
2021/06/05 09:38:24;;;;;;;1.83;1.73;;;26.60;39.80;;;30.25;26.51;101656.78;5156589;27;20483;-50
2021/06/05 09:41:38;;;;;;;1.65;1.55;;;26.60;39.70;;;30.24;26.54;101647.00;5156732;27;20503;-53
2021/06/05 09:44:38;;;;;;;1.95;1.85;;;26.70;39.80;;;30.23;26.64;101654.22;5093212;27;20421;-55
2021/06/05 09:47:20;;;;;;;1.98;1.88;;;26.70;39.80;;;30.20;26.61;101643.69;5137861;27;20043;-51
2021/06/05 09:49:50;;;;;;;1.95;1.85;;;26.70;39.80;;;30.23;26.61;101647.97;5156669;27;20046;-53
2021/06/05 09:52:34;;;;;;;1.85;1.75;;;26.70;39.70;;;30.24;26.65;101655.09;5156466;27;20074;-53
2021/06/05 09:55:29;;;;;;;1.98;1.88;;;26.70;39.70;;;30.24;26.69;101647.00;5156694;27;20483;-50
2021/06/05 09:57:58;;;;;;;1.90;1.80;;;26.70;39.80;;;30.26;26.48;101658.50;5137541;27;20047;-50
2021/06/05 10:00:32;;;;;;;2.15;1.92;;;26.70;39.70;;;30.24;26.56;101653.22;5156370;27;20055;-54
2021/06/05 10:03:25;;;;;;;1.90;1.80;;;26.60;39.70;;;30.22;26.66;101646.25;5156590;27;20498;-51
2021/06/05 10:05:51;;;;;;;2.00;1.90;;;26.70;39.90;;;30.25;26.63;101656.78;5136807;27;20053;-51
2021/06/05 10:08:40;;;;;;;2.00;1.90;;;26.70;39.70;;;30.21;26.49;101655.34;5156812;27;20046;-51
2021/06/05 10:11:41;;;;;;;1.90;1.80;;;26.70;39.80;;;30.22;26.62;101646.25;5136440;27;20043;-52
2021/06/05 10:14:16;;;;;;;1.98;1.88;;;26.60;39.70;;;30.20;26.72;101643.69;5119656;27;20130;-53
2021/06/05 10:16:54;;;;;;;1.98;1.88;;;26.70;39.70;;;30.20;26.63;101643.69;5137202;27;20042;-48
2021/06/05 10:19:49;;;;;;;2.63;1.90;;;26.70;39.70;;;30.22;26.69;101639.03;5135927;27;20047;-48
2021/06/05 10:22:15;;;;;;;2.13;1.85;;;26.70;39.80;;;30.24;26.55;101653.22;5137524;27;20138;-54
2021/06/05 10:24:59;;;;;;;2.17;2.03;;;26.70;40.10;;;30.20;26.63;101641.00;5155907;27;20489;-53
2021/06/05 10:27:39;;;;;;;2.03;1.92;;;26.70;39.70;;;30.20;26.61;101634.75;5120048;27;20050;-50
2021/06/05 10:31:02;;;;;;;2.08;1.98;;;26.70;39.80;;;30.24;26.68;101637.06;5156033;27;20054;-56